Latest Weather Observations for Inner Beacon

IDQ60801

Issued at 3:03 pm EST Tuesday 30 August 2016 (issued every 30 minutes, with the page automatically refreshed every 10 minutes)

About weather observations | Map of weather stations | Latest weather observations for QLD | Other Formats
Station Details ID: 040926 Name: INNER RECIPROCAL MARKER Lat: -27.26 Lon: 153.24 Height: 20.0 m
Data from the previous 72 hours. | See also: Recent months for locations in Queensland
Date/Time
EST
Temp
°C
App
Temp
°C
Dew
Point
°C
Rel
Hum
%
Delta-T
°C
Wind Press
QNH
hPa
Press
MSL
hPa
Rain since
9am
mm
Dir  Spd
km/h
Gust
km/h
Spd
kts
Gust
kts
30/03:00pm - - - - - E 15 19 8 10 - - -
30/02:30pm - - - - - E 13 17 7 9 - - -
30/02:00pm - - - - - E 15 17 8 9 - - -
30/01:30pm - - - - - E 15 19 8 10 - - -
30/01:00pm - - - - - E 15 17 8 9 - - -
30/12:30pm - - - - - E 17 20 9 11 - - -
30/12:00pm - - - - - ESE 17 24 9 13 - - -
30/11:30am - - - - - ESE 17 22 9 12 - - -
30/11:00am - - - - - ESE 17 20 9 11 - - -
30/10:30am - - - - - ESE 17 22 9 12 - - -
30/10:00am - - - - - E 17 22 9 12 - - -
30/09:30am - - - - - ESE 19 20 10 11 - - -
30/09:00am - - - - - SSE 17 20 9 11 - - -
30/08:30am - - - - - S 13 15 7 8 - - -
30/08:00am - - - - - SE 7 9 4 5 - - -
30/07:30am - - - - - ESE 6 7 3 4 - - -
30/07:00am - - - - - E 6 7 3 4 - - -
30/06:30am - - - - - ENE 6 7 3 4 - - -
30/06:00am - - - - - ENE 7 9 4 5 - - -
30/05:30am - - - - - ENE 9 11 5 6 - - -
30/05:00am - - - - - ENE 6 7 3 4 - - -
30/04:30am - - - - - ENE 7 9 4 5 - - -
30/04:00am - - - - - ENE 6 7 3 4 - - -
30/03:30am - - - - - ENE 6 7 3 4 - - -
30/03:00am - - - - - NE 6 7 3 4 - - -
30/02:30am - - - - - NE 6 7 3 4 - - -
30/02:00am - - - - - NE 7 7 4 4 - - -
30/01:30am - - - - - NE 6 9 3 5 - - -
30/01:00am - - - - - ENE 7 9 4 5 - - -
30/12:30am - - - - - ENE 6 7 3 4 - - -
30/12:00am - - - - - NE 6 7 3 4 - - -
 
Date/Time
EST
Temp
°C
App
Temp
°C
Dew
Point
°C
Rel
Hum
%
Delta-T
°C
Wind Press
QNH
hPa
Press
MSL
hPa
Rain since
9am
mm
Dir  Spd
km/h
Gust
km/h
Spd
kts
Gust
kts
29/11:30pm - - - - - NE 6 7 3 4 - - -
29/11:00pm - - - - - NE 7 9 4 5 - - -
29/10:30pm - - - - - NE 7 9 4 5 - - -
29/10:00pm - - - - - NE 9 9 5 5 - - -
29/09:30pm - - - - - NE 9 11 5 6 - - -
29/09:00pm - - - - - NE 9 11 5 6 - - -
29/08:30pm - - - - - NE 13 17 7 9 - - -
29/08:00pm - - - - - NE 13 15 7 8 - - -
29/07:30pm - - - - - NE 13 17 7 9 - - -
29/07:00pm - - - - - NE 15 17 8 9 - - -
29/06:30pm - - - - - NE 19 20 10 11 - - -
29/06:00pm - - - - - ENE 19 22 10 12 - - -
29/05:30pm - - - - - NE 20 22 11 12 - - -
29/05:00pm - - - - - NE 20 24 11 13 - - -
29/04:30pm - - - - - NE 11 15 6 8 - - -
29/04:00pm - - - - - NNE 7 9 4 5 - - -
29/03:30pm - - - - - NNE 6 6 3 3 - - -
29/03:00pm - - - - - N 4 4 2 2 - - -
29/02:30pm - - - - - N 7 9 4 5 - - -
29/02:00pm - - - - - NE 6 7 3 4 - - -
29/01:30pm - - - - - E 4 6 2 3 - - -
29/01:00pm - - - - - ESE 4 4 2 2 - - -
29/12:30pm - - - - - E 4 6 2 3 - - -
29/12:00pm - - - - - ESE 2 6 1 3 - - -
29/11:30am - - - - - CALM 0 0 0 0 - - -
29/11:00am - - - - - S 4 6 2 3 - - -
29/10:30am - - - - - SSW 6 7 3 4 - - -
29/10:00am - - - - - SSW 7 9 4 5 - - -
29/09:30am - - - - - SW 11 13 6 7 - - -
29/09:00am - - - - - SSW 9 13 5 7 - - -
29/08:30am - - - - - SSW 11 13 6 7 - - -
29/08:00am - - - - - SSW 15 17 8 9 - - -
29/07:30am - - - - - SSW 15 17 8 9 - - -
29/07:00am - - - - - SSW 15 19 8 10 - - -
29/06:30am - - - - - SSW 13 15 7 8 - - -
29/06:00am - - - - - SSW 11 13 6 7 - - -
29/05:30am - - - - - SSW 13 15 7 8 - - -
29/05:00am - - - - - S 13 15 7 8 - - -
29/04:30am - - - - - SSW 13 15 7 8 - - -
29/04:00am - - - - - SSW 13 15 7 8 - - -
29/03:30am - - - - - SW 13 15 7 8 - - -
29/03:00am - - - - - SW 11 13 6 7 - - -
29/02:30am - - - - - SW 9 13 5 7 - - -
29/02:00am - - - - - WSW 11 13 6 7 - - -
29/01:30am - - - - - WSW 13 15 7 8 - - -
29/01:00am - - - - - WSW 11 13 6 7 - - -
29/12:30am - - - - - WSW 11 13 6 7 - - -
29/12:00am - - - - - W 9 11 5 6 - - -
 
Date/Time
EST
Temp
°C
App
Temp
°C
Dew
Point
°C
Rel
Hum
%
Delta-T
°C
Wind Press
QNH
hPa
Press
MSL
hPa
Rain since
9am
mm
Dir  Spd
km/h
Gust
km/h
Spd
kts
Gust
kts
28/11:30pm - - - - - W 9 11 5 6 - - -
28/11:00pm - - - - - W 11 13 6 7 - - -
28/10:30pm - - - - - WSW 9 9 5 5 - - -
28/10:00pm - - - - - WNW 7 7 4 4 - - -
28/09:30pm - - - - - N 6 7 3 4 - - -
28/09:00pm - - - - - NE 4 4 2 2 - - -
28/08:30pm - - - - - E 7 9 4 5 - - -
28/08:00pm - - - - - E 9 11 5 6 - - -
28/07:30pm - - - - - E 11 13 6 7 - - -
28/07:00pm - - - - - ENE 15 17 8 9 - - -
28/06:30pm - - - - - ENE 13 15 7 8 - - -
28/06:00pm - - - - - ENE 17 19 9 10 - - -
28/05:30pm - - - - - ENE 17 19 9 10 - - -
28/05:00pm - - - - - E 19 20 10 11 - - -
28/04:30pm - - - - - E 20 22 11 12 - - -
28/04:00pm - - - - - E 17 19 9 10 - - -
28/03:30pm - - - - - ENE 13 13 7 7 - - -
28/03:00pm - - - - - NE 7 9 4 5 - - -
28/02:30pm - - - - - NE 6 7 3 4 - - -
28/02:00pm - - - - - ENE 4 6 2 3 - - -
28/01:30pm - - - - - E 4 6 2 3 - - -
28/01:00pm - - - - - S 4 6 2 3 - - -
28/12:30pm - - - - - SSW 7 7 4 4 - - -
28/12:00pm - - - - - SSW 9 13 5 7 - - -
28/11:30am - - - - - SSW 11 13 6 7 - - -
28/11:00am - - - - - SSW 13 15 7 8 - - -
28/10:30am - - - - - SW 15 17 8 9 - - -
28/10:00am - - - - - SW 19 20 10 11 - - -
28/09:30am - - - - - SW 20 24 11 13 - - -
28/09:00am - - - - - SSW 22 26 12 14 - - -
28/08:30am - - - - - SW 26 28 14 15 - - -
28/08:00am - - - - - SW 22 26 12 14 - - -
28/07:30am - - - - - SW 19 22 10 12 - - -
28/07:00am - - - - - SW 17 20 9 11 - - -
28/06:30am - - - - - SW 17 20 9 11 - - -
28/06:00am - - - - - SW 17 19 9 10 - - -
28/05:30am - - - - - SW 20 24 11 13 - - -
28/05:00am - - - - - SW 20 24 11 13 - - -
28/04:30am - - - - - SW 19 22 10 12 - - -
28/04:00am - - - - - SW 19 20 10 11 - - -
28/03:30am - - - - - SW 19 22 10 12 - - -
28/03:00am - - - - - SW 17 19 9 10 - - -
28/02:30am - - - - - SW 17 20 9 11 - - -
28/02:00am - - - - - SW 19 20 10 11 - - -
28/01:30am - - - - - SSW 19 22 10 12 - - -
28/01:00am - - - - - SSW 15 17 8 9 - - -
28/12:30am - - - - - SSW 17 19 9 10 - - -
28/12:00am - - - - - SSW 17 19 9 10 - - -
 
Date/Time
EST
Temp
°C
App
Temp
°C
Dew
Point
°C
Rel
Hum
%
Delta-T
°C
Wind Press
QNH
hPa
Press
MSL
hPa
Rain since
9am
mm
Dir  Spd
km/h
Gust
km/h
Spd
kts
Gust
kts
27/11:30pm - - - - - SW 13 15 7 8 - - -
27/11:00pm - - - - - SSW 15 19 8 10 - - -
27/10:30pm - - - - - SSW 19 22 10 12 - - -
27/10:00pm - - - - - S 15 17 8 9 - - -
27/09:30pm - - - - - S 19 22 10 12 - - -
27/09:00pm - - - - - ESE 13 17 7 9 - - -
27/08:30pm - - - - - CALM 0 0 0 0 - - -
27/08:00pm - - - - - CALM 0 2 0 1 - - -
27/07:30pm - - - - - ESE 7 9 4 5 - - -
27/07:00pm - - - - - ESE 11 13 6 7 - - -
27/06:30pm - - - - - ESE 17 20 9 11 - - -
27/06:00pm - - - - - ESE 17 28 9 15 - - -
27/05:30pm - - - - - W 17 20 9 11 - - -
27/05:00pm - - - - - W 17 20 9 11 - - -
27/04:30pm - - - - - SW 15 19 8 10 - - -
27/04:00pm - - - - - WSW 13 17 7 9 - - -
27/03:30pm - - - - - W 13 17 7 9 - - -

Other Formats:

Comma delimited format used in spreadsheet applications
http://www.bom.gov.au/fwo/IDQ60801/IDQ60801.94590.axf

JavaScript Object Notation format (JSON) in row-major order
http://www.bom.gov.au/fwo/IDQ60801/IDQ60801.94590.json